Terminal Aerodrome Forecast
Issued by NWS

Home | Current Version | Previous Version | Text Only | Print | Product List | Glossary On
Versions: 1 2 3 4 5 6 7 8 9 10 11 12 13
251
FTUS45 KRIW 231847 AAA
TAFRKS
TAF AMD
KRKS 231847Z 2319/2418 06007KT 3SM -SN BKN005 OVC015
      TEMPO 2319/2323 1 1/2SM -SN BR
     FM240300 31008KT P6SM VCSH SCT016 BKN050
     FM240600 26017G25KT P6SM SCT090
     FM241600 26019G28KT P6SM BKN090=

USA.gov is the U.S. government's official web portal to all federal, state and local government web resources and services.